Time;durP1;ratioP1;P1;durP2;ratioP2;P2;SDS_P1;SDS_P2;PMS_P1;PMS_P2;Temp;Humidity;BMP_temperature;BMP_pressure;BME280_temperature;BME280_humidity;BME280_pressure;Samples;Min_cycle;Max_cycle;Signal;HPM_P1;HPM_P2
2021/12/16 00:03:36;;;;;;;;;;;8.20;99.90;;;;;;5112411;28;19924;-88
2021/12/16 00:09:06;;;;;;;;;;;8.20;99.90;;;;;;5098201;28;20027;-87
2021/12/16 00:33:42;;;;;;;;;;;8.10;99.90;;;;;;5115465;28;19919;-87
2021/12/16 00:36:08;;;;;;;;;;;8.10;99.90;;;;;;5084479;28;20324;-87
2021/12/16 00:38:37;;;;;;;;;;;8.10;99.90;;;;;;5083571;28;20007;-88
2021/12/16 00:41:03;;;;;;;;;;;8.10;99.90;;;;;;5082151;28;19963;-87
2021/12/16 00:43:46;;;;;;;;;;;8.10;99.90;;;;;;5082701;28;20006;-87
2021/12/16 00:46:31;;;;;;;;;;;8.20;99.90;;;;;;5100683;28;20240;-88
2021/12/16 00:54:16;;;;;;;;;;;8.20;99.90;;;;;;5081259;28;20326;-87
2021/12/16 00:56:44;;;;;;;;;;;8.10;99.90;;;;;;5078633;28;19920;-87
2021/12/16 00:59:16;;;;;;;;;;;8.20;99.90;;;;;;5095244;28;19931;-87
2021/12/16 01:02:23;;;;;;;;;;;8.20;99.90;;;;;;5079791;28;20268;-87
2021/12/16 01:35:20;;;;;;;;;;;8.00;99.90;;;;;;5044565;28;19960;-87
2021/12/16 01:50:42;;;;;;;;;;;8.10;99.90;;;;;;5094329;28;19934;-87
2021/12/16 01:53:24;;;;;;;;;;;8.10;99.90;;;;;;5077488;28;19920;-87
2021/12/16 01:55:58;;;;;;;;;;;8.10;99.90;;;;;;5092930;28;19924;-87
2021/12/16 01:58:27;;;;;;;;;;;8.00;99.90;;;;;;5098664;28;20232;-87
2021/12/16 02:01:27;;;;;;;;;;;8.10;99.90;;;;;;5081235;28;20387;-87
2021/12/16 02:03:54;;;;;;;;;;;8.10;99.90;;;;;;5101146;28;19927;-87
2021/12/16 02:06:39;;;;;;;;;;;8.00;99.90;;;;;;5097560;28;19923;-87
2021/12/16 02:09:08;;;;;;;;;;;8.00;99.90;;;;;;5106529;27;19920;-87
2021/12/16 02:11:49;;;;;;;;;;;8.00;99.90;;;;;;5117850;27;19926;-87
2021/12/16 02:28:26;;;;;;;;;;;8.00;99.90;;;;;;5094075;28;19927;-87
2021/12/16 02:34:24;;;;;;;;;;;8.00;99.90;;;;;;5094106;28;19920;-87
2021/12/16 02:36:43;;;;;;;;;;;8.00;99.90;;;;;;5091508;28;20305;-87
2021/12/16 02:39:10;;;;;;;;;;;8.00;99.90;;;;;;5077181;28;19920;-87
2021/12/16 02:41:39;;;;;;;;;;;8.00;99.90;;;;;;5110298;28;19920;-87
2021/12/16 02:44:21;;;;;;;;;;;8.00;99.90;;;;;;5076785;28;19970;-87
2021/12/16 02:49:32;;;;;;;;;;;8.00;99.90;;;;;;5092569;28;19920;-87
2021/12/16 02:52:00;;;;;;;;;;;8.00;99.90;;;;;;5076332;28;20313;-88
2021/12/16 02:54:37;;;;;;;;;;;8.00;99.90;;;;;;5077106;28;20470;-87
2021/12/16 02:57:14;;;;;;;;;;;8.00;99.90;;;;;;5076697;28;19919;-87
2021/12/16 02:59:47;;;;;;;;;;;8.00;99.90;;;;;;5060700;28;19973;-87
2021/12/16 03:02:15;;;;;;;;;;;8.00;99.90;;;;;;5075786;28;19920;-86
2021/12/16 03:04:41;;;;;;;;;;;8.00;99.90;;;;;;5066584;28;20308;-87
2021/12/16 03:07:14;;;;;;;;;;;8.00;99.90;;;;;;5096894;28;20282;-87
2021/12/16 03:14:55;;;;;;;;;;;8.00;99.90;;;;;;5117417;27;19931;-87
2021/12/16 03:20:11;;;;;;;;;;;7.90;99.90;;;;;;5116795;27;19926;-87
2021/12/16 03:22:57;;;;;;;;;;;7.80;99.90;;;;;;5083944;28;19920;-87
2021/12/16 03:38:53;;;;;;;;;;;7.50;99.90;;;;;;5093348;28;19920;-87
2021/12/16 03:41:21;;;;;;;;;;;7.50;99.90;;;;;;5075615;28;19921;-87
2021/12/16 03:43:49;;;;;;;;;;;7.40;99.90;;;;;;5075549;28;19927;-87
2021/12/16 03:48:43;;;;;;;;;;;7.30;99.90;;;;;;5092451;28;19927;-87
2021/12/16 03:51:10;;;;;;;;;;;7.20;99.90;;;;;;5092281;28;20370;-87
2021/12/16 03:53:36;;;;;;;;;;;7.20;99.90;;;;;;5092125;28;19920;-87
2021/12/16 03:56:02;;;;;;;;;;;7.10;99.90;;;;;;5114736;27;19927;-87
2021/12/16 03:58:28;;;;;;;;;;;7.10;99.90;;;;;;5074812;28;19928;-87
2021/12/16 04:00:55;;;;;;;;;;;7.00;99.90;;;;;;5091184;28;19920;-87
2021/12/16 04:03:23;;;;;;;;;;;7.00;99.90;;;;;;5091958;28;20267;-86
2021/12/16 04:05:49;;;;;;;;;;;6.90;99.90;;;;;;5092270;28;19924;-87
2021/12/16 04:08:17;;;;;;;;;;;6.90;99.90;;;;;;5109084;28;19920;-87
2021/12/16 04:10:51;;;;;;;;;;;6.90;99.90;;;;;;5114980;28;19926;-87
2021/12/16 04:13:18;;;;;;;;;;;6.70;99.90;;;;;;5093858;28;19924;-87
2021/12/16 04:15:46;;;;;;;;;;;6.70;99.90;;;;;;5091842;28;19965;-87
2021/12/16 04:18:14;;;;;;;;;;;6.60;99.90;;;;;;5075444;28;19920;-87
2021/12/16 04:20:42;;;;;;;;;;;6.60;99.90;;;;;;5074914;28;20053;-87
2021/12/16 04:23:09;;;;;;;;;;;6.60;99.90;;;;;;5092207;28;20275;-87
2021/12/16 04:25:36;;;;;;;;;;;6.60;99.90;;;;;;5091756;28;20016;-87
2021/12/16 04:28:03;;;;;;;;;;;6.60;99.90;;;;;;5092203;28;20275;-86
2021/12/16 04:30:29;;;;;;;;;;;6.60;99.90;;;;;;5091685;28;19920;-87
2021/12/16 04:32:57;;;;;;;;;;;6.50;99.90;;;;;;5092100;28;19927;-87
2021/12/16 04:35:25;;;;;;;;;;;6.50;99.90;;;;;;5108626;28;20310;-87
2021/12/16 04:37:50;;;;;;;;;;;6.50;99.90;;;;;;5092086;28;19920;-87
2021/12/16 04:40:26;;;;;;;;;;;;;;;;;;;;;
2021/12/16 04:43:00;;;;;;;;;;;6.50;99.90;;;;;;5091687;28;19928;-87
2021/12/16 04:45:26;;;;;;;;;;;6.40;99.90;;;;;;5074793;28;19963;-86
2021/12/16 04:47:52;;;;;;;;;;;6.50;99.90;;;;;;5092476;28;19970;-87
2021/12/16 04:50:17;;;;;;;;;;;6.50;99.90;;;;;;5108144;28;20291;-86
2021/12/16 04:52:51;;;;;;;;;;;6.50;99.90;;;;;;5107830;28;20018;-87
2021/12/16 04:55:24;;;;;;;;;;;6.50;99.90;;;;;;5093108;28;19924;-87
2021/12/16 04:57:49;;;;;;;;;;;6.50;99.90;;;;;;5091298;28;19931;-87
2021/12/16 05:00:16;;;;;;;;;;;6.50;99.90;;;;;;5108839;28;19920;-87
2021/12/16 05:02:44;;;;;;;;;;;6.40;99.90;;;;;;5074498;28;20011;-87
2021/12/16 05:05:27;;;;;;;;;;;6.40;99.90;;;;;;5110253;28;19974;-87
2021/12/16 05:07:53;;;;;;;;;;;6.30;99.90;;;;;;5097569;28;20015;-86
2021/12/16 05:10:21;;;;;;;;;;;6.20;99.90;;;;;;5094867;28;20339;-87
2021/12/16 05:12:51;;;;;;;;;;;6.10;99.90;;;;;;5117859;27;19920;-87
2021/12/16 05:15:20;;;;;;;;;;;6.00;99.90;;;;;;5118308;27;19919;-87
2021/12/16 05:17:52;;;;;;;;;;;6.10;99.90;;;;;;5119292;27;19926;-87
2021/12/16 05:20:21;;;;;;;;;;;6.00;99.90;;;;;;5132951;27;20252;-87
2021/12/16 05:25:46;;;;;;;;;;;6.00;99.90;;;;;;5100880;28;19977;-86
2021/12/16 05:28:12;;;;;;;;;;;6.00;99.90;;;;;;5100933;28;19965;-87
2021/12/16 05:30:40;;;;;;;;;;;6.10;99.90;;;;;;5081214;28;20267;-87
2021/12/16 05:33:08;;;;;;;;;;;6.10;99.90;;;;;;5081995;28;20259;-87
2021/12/16 05:35:34;;;;;;;;;;;6.20;99.90;;;;;;5080919;28;19920;-87
2021/12/16 05:40:53;;;;;;;;;;;6.40;99.90;;;;;;5103778;28;20259;-88
2021/12/16 05:43:22;;;;;;;;;;;6.40;99.90;;;;;;5115391;28;20014;-88
2021/12/16 05:45:47;;;;;;;;;;;6.40;99.90;;;;;;5080918;28;20378;-88
2021/12/16 05:48:22;;;;;;;;;;;6.50;99.90;;;;;;5101383;28;19920;-96
2021/12/16 05:51:22;;;;;;;;;;;6.50;99.90;;;;;;5099408;28;19920;-95
2021/12/16 05:53:57;;;;;;;;;;;6.50;99.90;;;;;;5092797;28;19942;-89
2021/12/16 05:56:29;;;;;;;;;;;6.50;99.90;;;;;;5078287;28;19920;-93
2021/12/16 05:59:18;;;;;;;;;;;;;;;;;;;;;
2021/12/16 06:01:44;;;;;;;;;;;6.60;99.90;;;;;;5079066;28;19927;-90
2021/12/16 06:04:26;;;;;;;;;;;;;;;;;;;;;
2021/12/16 06:07:09;;;;;;;;;;;6.70;99.90;;;;;;5083743;28;19926;-91
2021/12/16 06:09:45;;;;;;;;;;;;;;;;;;;;;
2021/12/16 06:12:14;;;;;;;;;;;6.80;99.90;;;;;;5099759;28;20305;-91
2021/12/16 06:28:51;;;;;;;;;;;;;;;;;;;;;
2021/12/16 06:37:06;;;;;;;;;;;;;;;;;;;;;
2021/12/16 06:39:34;;;;;;;;;;;7.30;99.90;;;;;;5099039;28;19919;-90
2021/12/16 06:42:18;;;;;;;;;;;7.30;99.90;;;;;;5080959;28;19928;-92
2021/12/16 06:45:01;;;;;;;;;;;7.30;99.90;;;;;;5098117;28;19959;-90
2021/12/16 06:47:42;;;;;;;;;;;7.30;99.90;;;;;;5083719;28;19970;-93
2021/12/16 06:50:14;;;;;;;;;;;7.20;99.90;;;;;;5099020;28;19920;-89
2021/12/16 06:52:48;;;;;;;;;;;7.30;99.90;;;;;;5114199;28;20313;-89
2021/12/16 06:55:49;;;;;;;;;;;7.20;99.90;;;;;;5082211;28;20018;-94
2021/12/16 06:58:43;;;;;;;;;;;7.20;99.90;;;;;;5107567;28;19926;-90
2021/12/16 07:01:31;;;;;;;;;;;7.20;99.90;;;;;;5076768;28;19935;-90
2021/12/16 07:04:00;;;;;;;;;;;7.10;99.90;;;;;;5060900;28;19924;-89
2021/12/16 07:06:35;;;;;;;;;;;7.10;99.90;;;;;;5059774;28;19924;-90
2021/12/16 07:09:19;;;;;;;;;;;7.10;99.90;;;;;;5076299;28;20402;-90
2021/12/16 07:11:56;;;;;;;;;;;7.10;99.90;;;;;;5058943;28;20323;-89
2021/12/16 07:14:34;;;;;;;;;;;;;;;;;;;;;
2021/12/16 07:17:02;;;;;;;;;;;6.90;99.90;;;;;;5078036;28;19924;-90
2021/12/16 07:19:28;;;;;;;;;;;6.90;99.90;;;;;;5060042;28;20407;-89
2021/12/16 07:21:56;;;;;;;;;;;6.80;99.90;;;;;;5059171;28;19975;-90
2021/12/16 07:24:29;;;;;;;;;;;6.80;99.90;;;;;;5076323;28;19973;-92
2021/12/16 07:27:02;;;;;;;;;;;6.70;99.90;;;;;;5076891;28;20011;-89
2021/12/16 07:29:28;;;;;;;;;;;6.60;99.90;;;;;;5076414;28;19928;-89
2021/12/16 07:31:56;;;;;;;;;;;6.60;99.90;;;;;;5058350;28;19930;-90
2021/12/16 07:34:26;;;;;;;;;;;6.60;99.90;;;;;;5060166;28;19971;-91
2021/12/16 07:36:52;;;;;;;;;;;6.60;99.90;;;;;;5076256;28;19924;-93
2021/12/16 07:39:28;;;;;;;;;;;6.50;99.90;;;;;;5093028;28;19931;-91
2021/12/16 07:41:56;;;;;;;;;;;6.40;99.90;;;;;;5076754;28;20305;-89
2021/12/16 07:44:24;;;;;;;;;;;6.40;99.90;;;;;;5076225;28;20275;-89
2021/12/16 07:47:01;;;;;;;;;;;6.40;99.90;;;;;;5091986;28;19924;-89
2021/12/16 07:49:35;;;;;;;;;;;6.40;99.90;;;;;;5075904;28;19924;-89
2021/12/16 07:52:04;;;;;;;;;;;6.40;99.90;;;;;;5075377;28;19924;-88
2021/12/16 07:54:40;;;;;;;;;;;;;;;;;;;;;
2021/12/16 07:57:06;;;;;;;;;;;6.50;99.90;;;;;;5076711;28;19931;-88
2021/12/16 07:59:35;;;;;;;;;;;6.50;99.90;;;;;;5076118;28;20011;-88
2021/12/16 08:02:11;;;;;;;;;;;6.60;99.90;;;;;;5075143;28;19963;-88
2021/12/16 08:04:41;;;;;;;;;;;6.60;99.90;;;;;;5059955;28;20411;-88
2021/12/16 08:07:08;;;;;;;;;;;6.70;99.90;;;;;;5059054;28;19924;-89
2021/12/16 08:09:40;;;;;;;;;;;6.70;99.90;;;;;;5075776;28;19949;-88
2021/12/16 08:12:06;;;;;;;;;;;6.70;99.90;;;;;;5092380;28;19924;-89
2021/12/16 08:14:34;;;;;;;;;;;6.80;99.90;;;;;;5058819;28;19938;-89
2021/12/16 08:17:03;;;;;;;;;;;6.90;99.90;;;;;;5058644;28;19974;-89
2021/12/16 08:19:29;;;;;;;;;;;6.90;99.90;;;;;;5059206;28;20034;-90
2021/12/16 08:21:57;;;;;;;;;;;7.00;99.90;;;;;;5074766;28;20010;-90
2021/12/16 08:24:25;;;;;;;;;;;7.10;99.90;;;;;;5076108;28;19970;-90
2021/12/16 08:26:53;;;;;;;;;;;7.10;99.90;;;;;;5058707;28;19931;-87
2021/12/16 08:29:24;;;;;;;;;;;7.10;99.90;;;;;;5076067;28;20380;-89
2021/12/16 08:31:56;;;;;;;;;;;7.20;99.90;;;;;;5059702;28;19931;-90
2021/12/16 08:34:26;;;;;;;;;;;7.20;99.90;;;;;;5058820;28;19924;-91
2021/12/16 08:36:57;;;;;;;;;;;7.20;99.90;;;;;;5093261;28;19924;-89
2021/12/16 08:39:23;;;;;;;;;;;7.20;99.90;;;;;;5075046;28;19960;-90
2021/12/16 08:41:56;;;;;;;;;;;7.20;99.90;;;;;;5058809;28;20098;-90
2021/12/16 08:44:29;;;;;;;;;;;7.30;99.90;;;;;;5059509;28;19929;-90
2021/12/16 08:46:59;;;;;;;;;;;7.30;99.90;;;;;;5076992;28;19930;-90
2021/12/16 08:49:27;;;;;;;;;;;7.40;99.90;;;;;;5079870;28;20275;-90
2021/12/16 08:51:54;;;;;;;;;;;7.40;99.90;;;;;;5079142;28;20506;-90
2021/12/16 08:54:30;;;;;;;;;;;;;;;;;;;;;
2021/12/16 08:57:13;;;;;;;;;;;7.50;99.90;;;;;;5097409;28;19932;-93
2021/12/16 08:59:41;;;;;;;;;;;7.50;99.90;;;;;;5080080;28;19928;-94
2021/12/16 09:02:17;;;;;;;;;;;7.50;99.90;;;;;;5063538;28;20027;-92
2021/12/16 09:04:45;;;;;;;;;;;7.50;99.90;;;;;;5063234;28;19924;-91
2021/12/16 09:07:16;;;;;;;;;;;7.60;99.90;;;;;;5079768;28;19924;-93
2021/12/16 09:09:49;;;;;;;;;;;7.50;99.90;;;;;;5080146;28;20253;-93
2021/12/16 09:12:38;;;;;;;;;;;7.50;99.90;;;;;;5062054;28;19925;-93
2021/12/16 09:15:06;;;;;;;;;;;7.50;99.90;;;;;;5081410;28;20396;-92
2021/12/16 09:17:39;;;;;;;;;;;7.60;99.90;;;;;;5062441;28;19924;-91
2021/12/16 09:20:24;;;;;;;;;;;7.60;99.90;;;;;;5062979;28;19924;-93
2021/12/16 09:22:55;;;;;;;;;;;7.60;99.90;;;;;;5065196;28;19977;-93
2021/12/16 09:25:21;;;;;;;;;;;7.60;99.90;;;;;;5063215;28;19930;-91
2021/12/16 09:27:49;;;;;;;;;;;7.70;99.90;;;;;;5079172;28;20015;-90
2021/12/16 09:30:23;;;;;;;;;;;7.60;99.90;;;;;;5062635;28;19924;-90
2021/12/16 09:33:02;;;;;;;;;;;7.70;99.90;;;;;;5079203;28;19993;-90
2021/12/16 09:35:36;;;;;;;;;;;7.70;99.90;;;;;;5061783;28;20345;-90
2021/12/16 09:38:01;;;;;;;;;;;7.70;99.90;;;;;;5062579;28;20288;-90
2021/12/16 09:40:40;;;;;;;;;;;;;;;;;;;;;
2021/12/16 09:43:11;;;;;;;;;;;7.80;99.90;;;;;;5079348;28;20015;-91
2021/12/16 09:45:39;;;;;;;;;;;7.80;99.90;;;;;;5062470;28;19928;-90
2021/12/16 09:48:12;;;;;;;;;;;7.80;99.90;;;;;;5078425;28;19971;-91
2021/12/16 09:50:44;;;;;;;;;;;7.80;99.90;;;;;;5078446;28;20289;-90
2021/12/16 09:53:17;;;;;;;;;;;7.90;99.90;;;;;;5078115;28;20429;-91
2021/12/16 09:55:50;;;;;;;;;;;7.90;99.90;;;;;;5079305;28;19924;-91
2021/12/16 09:58:21;;;;;;;;;;;8.00;99.90;;;;;;5061835;28;20352;-91
2021/12/16 10:00:54;;;;;;;;;;;8.00;99.90;;;;;;5078582;28;19924;-91
2021/12/16 10:03:25;;;;;;;;;;;8.00;99.90;;;;;;5061090;28;19939;-91
2021/12/16 10:05:53;;;;;;;;;;;8.10;99.90;;;;;;5061138;28;20392;-90
2021/12/16 10:08:29;;;;;;;;;;;8.10;99.90;;;;;;5077964;28;19931;-91
2021/12/16 10:10:55;;;;;;;;;;;8.10;99.90;;;;;;5062015;28;19924;-91
2021/12/16 10:13:37;;;;;;;;;;;8.20;99.90;;;;;;5060747;28;19931;-90
2021/12/16 10:18:34;;;;;;;;;;;8.20;99.90;;;;;;5095888;28;19978;-95
2021/12/16 10:21:09;;;;;;;;;;;8.20;99.90;;;;;;5063822;28;20264;-96
2021/12/16 10:29:27;;;;;;;;;;;8.20;99.90;;;;;;3796662;22;19968;-95
2021/12/16 10:32:04;;;;;;;;;;;8.20;99.90;;;;;;5041724;28;20289;-94
2021/12/16 10:34:35;;;;;;;;;;;8.10;99.90;;;;;;5022777;28;19974;-93
2021/12/16 10:37:04;;;;;;;;;;;8.10;99.90;;;;;;5038624;28;19976;-94
2021/12/16 10:39:46;;;;;;;;;;;8.10;99.90;;;;;;5038185;28;19932;-95
2021/12/16 10:42:18;;;;;;;;;;;8.10;99.90;;;;;;5038927;28;19924;-94
2021/12/16 10:44:45;;;;;;;;;;;8.10;99.90;;;;;;5022067;28;20278;-94
2021/12/16 10:47:19;;;;;;;;;;;8.10;99.90;;;;;;5037496;28;19925;-94
2021/12/16 10:49:51;;;;;;;;;;;8.10;99.90;;;;;;5039960;28;20437;-95
2021/12/16 10:52:28;;;;;;;;;;;8.10;99.90;;;;;;5021684;28;20387;-95
2021/12/16 10:55:16;;;;;;;;;;;8.20;99.90;;;;;;5022183;28;19936;-96
2021/12/16 10:57:42;;;;;;;;;;;8.20;99.90;;;;;;5054273;28;19925;-93
2021/12/16 11:00:13;;;;;;;;;;;8.20;99.90;;;;;;5021658;28;19932;-88
2021/12/16 11:02:41;;;;;;;;;;;8.20;99.90;;;;;;5021114;28;19935;-95
2021/12/16 11:05:30;;;;;;;;;;;8.20;99.90;;;;;;5034947;28;19980;-96
2021/12/16 11:08:01;;;;;;;;;;;8.20;99.90;;;;;;5023429;28;19973;-95
2021/12/16 11:10:28;;;;;;;;;;;8.30;99.90;;;;;;5020321;28;19980;-94
2021/12/16 11:13:03;;;;;;;;;;;8.30;99.90;;;;;;5037893;28;19940;-93
2021/12/16 11:15:39;;;;;;;;;;;8.30;99.90;;;;;;5054300;28;19925;-96
2021/12/16 11:18:39;;;;;;;;;;;8.30;99.90;;;;;;5038716;28;19931;-95
2021/12/16 11:24:12;;;;;;;;;;;8.40;99.90;;;;;;5055156;28;20281;-92
2021/12/16 11:27:05;;;;;;;;;;;8.40;99.90;;;;;;5022764;28;19968;-93
2021/12/16 11:29:34;;;;;;;;;;;8.30;99.90;;;;;;5054253;28;19931;-93
2021/12/16 11:32:09;;;;;;;;;;;8.40;99.90;;;;;;5036801;28;20289;-93
2021/12/16 11:34:40;;;;;;;;;;;8.40;99.90;;;;;;5036762;28;19929;-93
2021/12/16 11:37:20;;;;;;;;;;;8.50;99.90;;;;;;5020106;28;20288;-96
2021/12/16 11:39:49;;;;;;;;;;;8.50;99.90;;;;;;5022506;28;19925;-92
2021/12/16 11:42:26;;;;;;;;;;;8.50;99.90;;;;;;5037581;28;19925;-94
2021/12/16 11:45:13;;;;;;;;;;;8.50;99.90;;;;;;5021705;28;20023;-93
2021/12/16 11:47:55;;;;;;;;;;;;;;;;;;;;;
2021/12/16 11:50:36;;;;;;;;;;;8.50;99.90;;;;;;5037363;28;19924;-93
2021/12/16 11:53:19;;;;;;;;;;;8.60;99.90;;;;;;5024008;28;20319;-91
2021/12/16 11:56:07;;;;;;;;;;;8.60;99.90;;;;;;5038039;28;19931;-92
2021/12/16 12:01:52;;;;;;;;;;;;;;;;;;;;;
2021/12/16 12:04:35;;;;;;;;;;;8.70;99.90;;;;;;5051305;28;19925;-87
2021/12/16 12:09:48;;;;;;;;;;;8.70;99.90;;;;;;4792653;26;20282;-89
2021/12/16 12:12:46;;;;;;;;;;;;;;;;;;;;;
2021/12/16 12:15:16;;;;;;;;;;;8.80;99.90;;;;;;5050530;28;19925;-88
2021/12/16 12:17:48;;;;;;;;;;;8.80;99.90;;;;;;5034715;28;19932;-88
2021/12/16 12:20:13;;;;;;;;;;;8.80;99.90;;;;;;5034888;28;19978;-89
2021/12/16 12:22:44;;;;;;;;;;;8.80;99.90;;;;;;5036643;28;19929;-89
2021/12/16 12:25:10;;;;;;;;;;;8.80;99.90;;;;;;5039280;28;19928;-88
2021/12/16 12:27:38;;;;;;;;;;;8.90;99.90;;;;;;5055312;28;19925;-88
2021/12/16 12:30:07;;;;;;;;;;;8.90;99.90;;;;;;5055749;28;19976;-88
2021/12/16 12:32:41;;;;;;;;;;;8.90;99.90;;;;;;5055143;28;19958;-88
2021/12/16 12:35:11;;;;;;;;;;;8.90;99.90;;;;;;5039263;28;19970;-88
2021/12/16 12:37:38;;;;;;;;;;;8.90;99.90;;;;;;5055336;28;20380;-89
2021/12/16 12:40:11;;;;;;;;;;;9.00;99.90;;;;;;5038991;28;20389;-88
2021/12/16 12:42:40;;;;;;;;;;;9.00;99.90;;;;;;5055139;28;19931;-89
2021/12/16 12:45:09;;;;;;;;;;;9.00;99.90;;;;;;5039058;28;20356;-89
2021/12/16 12:47:35;;;;;;;;;;;9.10;99.90;;;;;;5056047;28;19928;-88
2021/12/16 12:50:09;;;;;;;;;;;9.10;99.90;;;;;;5038829;28;19929;-88
2021/12/16 12:52:35;;;;;;;;;;;9.10;99.90;;;;;;5054780;28;19924;-88
2021/12/16 12:55:01;;;;;;;;;;;9.10;99.90;;;;;;5038986;28;19924;-88
2021/12/16 12:57:30;;;;;;;;;;;9.20;99.90;;;;;;5038619;28;19925;-89
2021/12/16 12:59:59;;;;;;;;;;;9.10;99.90;;;;;;5055511;28;20445;-89
2021/12/16 13:02:32;;;;;;;;;;;9.20;99.90;;;;;;5038841;28;20035;-89
2021/12/16 13:05:02;;;;;;;;;;;9.10;99.90;;;;;;5055609;28;19925;-88
2021/12/16 13:07:32;;;;;;;;;;;9.20;99.90;;;;;;5037663;28;20418;-88
2021/12/16 13:10:18;;;;;;;;;;;9.20;99.90;;;;;;5056205;28;19931;-96
2021/12/16 13:13:00;;;;;;;;;;;9.20;99.90;;;;;;5040109;28;19932;-89
2021/12/16 13:15:52;;;;;;;;;;;9.20;99.90;;;;;;5056851;28;19925;-93
2021/12/16 13:24:25;;;;;;;;;;;9.20;99.90;;;;;;5055408;28;19948;-91
2021/12/16 13:26:40;;;;;;;;;;;9.20;99.90;;;;;;5054407;28;20312;-92
2021/12/16 13:29:15;;;;;;;;;;;9.10;99.90;;;;;;5038824;28;20323;-92
2021/12/16 13:31:53;;;;;;;;;;;9.00;99.90;;;;;;5038656;28;19924;-93
2021/12/16 13:34:25;;;;;;;;;;;9.10;99.90;;;;;;5055074;28;19925;-93
2021/12/16 13:36:54;;;;;;;;;;;9.00;99.90;;;;;;5038490;28;20019;-94
2021/12/16 13:39:22;;;;;;;;;;;9.00;99.90;;;;;;5038647;28;19978;-95
2021/12/16 13:41:57;;;;;;;;;;;9.00;99.90;;;;;;5055058;28;19990;-91
2021/12/16 13:44:41;;;;;;;;;;;9.00;99.90;;;;;;5055451;28;20393;-91
2021/12/16 14:01:52;;;;;;;;;;;8.90;99.90;;;;;;5012917;28;20297;-91
2021/12/16 14:09:54;;;;;;;;;;;8.90;99.90;;;;;;5050508;28;19924;-94
2021/12/16 14:15:43;;;;;;;;;;;8.90;99.90;;;;;;5058629;28;19991;-91
2021/12/16 14:22:59;;;;;;;;;;;8.90;99.90;;;;;;5052681;28;20042;-92
2021/12/16 14:23:45;;;;;;;;;;;8.80;99.90;;;;;;5055752;28;20020;-91
2021/12/16 14:26:31;;;;;;;;;;;8.80;99.90;;;;;;5051752;28;20028;-87
2021/12/16 14:48:35;;;;;;;;;;;8.80;99.90;;;;;;5052476;28;19932;-88
2021/12/16 14:50:58;;;;;;;;;;;8.80;99.90;;;;;;5036307;28;20377;-89
2021/12/16 14:53:45;;;;;;;;;;;8.80;99.90;;;;;;5020000;28;20286;-88
2021/12/16 14:56:18;;;;;;;;;;;8.80;99.90;;;;;;5036796;28;19924;-88
2021/12/16 14:58:44;;;;;;;;;;;8.80;99.90;;;;;;5052731;28;20257;-88
2021/12/16 15:01:13;;;;;;;;;;;8.80;99.90;;;;;;5052525;28;20357;-88
2021/12/16 15:03:41;;;;;;;;;;;8.80;99.90;;;;;;5047058;28;19981;-88
2021/12/16 15:06:17;;;;;;;;;;;8.80;99.90;;;;;;5031243;28;19925;-88
2021/12/16 15:09:08;;;;;;;;;;;8.80;99.90;;;;;;5035470;28;19925;-86
2021/12/16 15:11:44;;;;;;;;;;;8.80;99.90;;;;;;5029648;28;20393;-87
2021/12/16 15:44:54;;;;;;;;;;;8.80;99.90;;;;;;5039303;28;19925;-90
2021/12/16 15:47:40;;;;;;;;;;;8.80;99.90;;;;;;5037285;28;19976;-92
2021/12/16 15:50:08;;;;;;;;;;;8.80;99.90;;;;;;5018103;28;20284;-92
2021/12/16 15:52:54;;;;;;;;;;;8.80;99.90;;;;;;5056867;28;20074;-94
2021/12/16 15:55:25;;;;;;;;;;;8.70;99.90;;;;;;5027526;28;19960;-85
2021/12/16 15:57:51;;;;;;;;;;;8.80;99.90;;;;;;5037979;28;19921;-89
2021/12/16 16:00:28;;;;;;;;;;;;;;;;;;;;;
2021/12/16 16:03:32;;;;;;;;;;;;;;;;;;;;;
2021/12/16 16:06:25;;;;;;;;;;;8.80;99.90;;;;;;5054970;28;19966;-93
2021/12/16 16:08:59;;;;;;;;;;;8.70;99.90;;;;;;5038055;28;19909;-94
2021/12/16 16:11:46;;;;;;;;;;;8.70;99.90;;;;;;5071493;28;19928;-94
2021/12/16 16:14:41;;;;;;;;;;;8.80;99.90;;;;;;5038562;28;19933;-95
2021/12/16 16:17:28;;;;;;;;;;;8.80;99.90;;;;;;5067202;28;19924;-94
2021/12/16 16:20:19;;;;;;;;;;;8.70;99.90;;;;;;5038337;28;19987;-95
2021/12/16 16:23:30;;;;;;;;;;;8.80;99.90;;;;;;5070103;28;19994;-96
2021/12/16 16:48:26;;;;;;;;;;;;;;;;;;;;;
2021/12/16 17:04:43;;;;;;;;;;;;;;;;;;;;;
2021/12/16 17:07:21;;;;;;;;;;;8.70;99.90;;;;;;4974289;28;20024;-94
2021/12/16 17:13:37;;;;;;;;;;;8.70;99.90;;;;;;4975125;28;19910;-94
2021/12/16 17:41:39;;;;;;;;;;;;;;;;;;;;;
2021/12/16 17:51:04;;;;;;;;;;;;;;;;;;;;;
2021/12/16 17:53:42;;;;;;;;;;;;;;;;;;;;;
2021/12/16 17:56:44;;;;;;;;;;;9.00;99.90;;;;;;4969865;28;19948;-95
2021/12/16 18:07:55;;;;;;;;;;;;;;;;;;;;;
2021/12/16 18:11:18;;;;;;;;;;;;;;;;;;;;;
2021/12/16 18:16:51;;;;;;;;;;;8.90;99.90;;;;;;4944726;28;19973;-94
2021/12/16 18:19:21;;;;;;;;;;;8.80;99.90;;;;;;4948930;28;19980;-95
2021/12/16 18:21:53;;;;;;;;;;;8.80;99.90;;;;;;4970047;28;19979;-94
2021/12/16 18:24:29;;;;;;;;;;;8.80;99.90;;;;;;4965217;28;19926;-95
2021/12/16 18:26:55;;;;;;;;;;;8.80;99.90;;;;;;4978552;28;19926;-94
2021/12/16 18:29:32;;;;;;;;;;;8.70;99.90;;;;;;4990136;28;20072;-93
2021/12/16 18:32:01;;;;;;;;;;;8.80;99.90;;;;;;4974682;28;19948;-96
2021/12/16 18:34:40;;;;;;;;;;;;;;;;;;;;;
2021/12/16 18:37:40;;;;;;;;;;;;;;;;;;;;;
2021/12/16 18:39:56;;;;;;;;;;;8.70;99.90;;;;;;4976942;28;20424;-92
2021/12/16 18:42:44;;;;;;;;;;;8.70;99.90;;;;;;4973098;28;19926;-94
2021/12/16 18:45:15;;;;;;;;;;;8.80;99.90;;;;;;4965946;28;20282;-96
2021/12/16 18:47:52;;;;;;;;;;;8.70;99.90;;;;;;4963323;28;19981;-92
2021/12/16 18:50:47;;;;;;;;;;;8.70;99.90;;;;;;4985440;28;19954;-87
2021/12/16 18:56:16;;;;;;;;;;;8.70;99.90;;;;;;4982691;28;19980;-95
2021/12/16 18:58:46;;;;;;;;;;;8.70;99.90;;;;;;4976911;28;19925;-92
2021/12/16 19:01:33;;;;;;;;;;;8.70;99.90;;;;;;4963494;28;19933;-91
2021/12/16 19:03:59;;;;;;;;;;;8.70;99.90;;;;;;4977894;28;19967;-91
2021/12/16 19:06:31;;;;;;;;;;;8.70;99.90;;;;;;4975494;28;19969;-90
2021/12/16 19:09:00;;;;;;;;;;;8.70;99.90;;;;;;4993493;28;20370;-91
2021/12/16 19:11:39;;;;;;;;;;;8.70;99.90;;;;;;4975089;28;19926;-90
2021/12/16 19:14:06;;;;;;;;;;;8.70;99.90;;;;;;4962473;28;19933;-91
2021/12/16 19:16:31;;;;;;;;;;;8.60;99.90;;;;;;4979751;28;19932;-90
2021/12/16 19:19:02;;;;;;;;;;;8.60;99.90;;;;;;4975548;28;19933;-91
2021/12/16 19:21:30;;;;;;;;;;;8.60;99.90;;;;;;4951003;28;19926;-90
2021/12/16 19:24:13;;;;;;;;;;;8.60;99.90;;;;;;4971788;28;19933;-94
2021/12/16 19:26:44;;;;;;;;;;;8.60;99.90;;;;;;4968426;28;19930;-92
2021/12/16 19:29:17;;;;;;;;;;;8.60;99.90;;;;;;4971044;28;19926;-93
2021/12/16 19:31:45;;;;;;;;;;;8.60;99.90;;;;;;4953954;28;19937;-92
2021/12/16 19:34:26;;;;;;;;;;;8.60;99.90;;;;;;4957483;28;19925;-92
2021/12/16 19:37:09;;;;;;;;;;;8.60;99.90;;;;;;4967571;28;19921;-91
2021/12/16 19:39:37;;;;;;;;;;;8.60;99.90;;;;;;4962527;28;19926;-93
2021/12/16 19:42:20;;;;;;;;;;;8.60;99.90;;;;;;4975742;28;19933;-90
2021/12/16 19:44:45;;;;;;;;;;;8.60;99.90;;;;;;4954380;28;19976;-87
2021/12/16 19:47:26;;;;;;;;;;;8.50;99.90;;;;;;4951319;28;19925;-92
2021/12/16 19:49:52;;;;;;;;;;;8.60;99.90;;;;;;4953065;28;19933;-93
2021/12/16 19:52:17;;;;;;;;;;;8.60;99.90;;;;;;5004677;28;19926;-93
2021/12/16 19:54:55;;;;;;;;;;;8.60;99.90;;;;;;4977494;28;19936;-94
2021/12/16 19:57:34;;;;;;;;;;;8.60;99.90;;;;;;4955174;28;19926;-95
2021/12/16 20:00:11;;;;;;;;;;;8.60;99.90;;;;;;4983033;28;20396;-94
2021/12/16 20:02:37;;;;;;;;;;;8.60;99.90;;;;;;4961584;28;19936;-95
2021/12/16 20:05:16;;;;;;;;;;;8.60;99.90;;;;;;4954066;28;19969;-93
2021/12/16 20:07:52;;;;;;;;;;;;;;;;;;;;;
2021/12/16 20:10:24;;;;;;;;;;;8.60;99.90;;;;;;4976361;28;19926;-92
2021/12/16 20:12:52;;;;;;;;;;;8.60;99.90;;;;;;4958804;28;19926;-93
2021/12/16 20:15:27;;;;;;;;;;;8.60;99.90;;;;;;4958355;28;20023;-91
2021/12/16 20:17:55;;;;;;;;;;;8.60;99.90;;;;;;4976433;28;19929;-94
2021/12/16 20:20:31;;;;;;;;;;;8.60;99.90;;;;;;4967179;28;19925;-94
2021/12/16 20:23:07;;;;;;;;;;;8.60;99.90;;;;;;4957453;28;19932;-92
2021/12/16 20:25:52;;;;;;;;;;;8.60;99.90;;;;;;4954380;28;20377;-92
2021/12/16 20:28:22;;;;;;;;;;;8.60;99.90;;;;;;4951884;28;19926;-93
2021/12/16 20:30:51;;;;;;;;;;;8.60;99.90;;;;;;4978593;28;19932;-92
2021/12/16 20:33:27;;;;;;;;;;;8.60;99.90;;;;;;4962274;28;19925;-92
2021/12/16 20:35:54;;;;;;;;;;;8.60;99.90;;;;;;4954478;28;19925;-91
2021/12/16 20:38:23;;;;;;;;;;;8.60;99.90;;;;;;4960497;28;20012;-87
2021/12/16 20:41:00;;;;;;;;;;;8.60;99.90;;;;;;4980372;28;19933;-90
2021/12/16 20:43:28;;;;;;;;;;;8.60;99.90;;;;;;4979344;28;20384;-87
2021/12/16 20:46:00;;;;;;;;;;;8.60;99.90;;;;;;4952654;28;19961;-91
2021/12/16 20:48:31;;;;;;;;;;;8.50;99.90;;;;;;4970794;28;19925;-91
2021/12/16 20:50:57;;;;;;;;;;;8.60;99.90;;;;;;4983369;28;19964;-91
2021/12/16 20:53:23;;;;;;;;;;;8.60;99.90;;;;;;4973375;28;19984;-92
2021/12/16 20:55:49;;;;;;;;;;;8.60;99.90;;;;;;4989918;28;20344;-91
2021/12/16 20:58:24;;;;;;;;;;;8.60;99.90;;;;;;4972791;28;19968;-89
2021/12/16 21:00:51;;;;;;;;;;;8.70;99.90;;;;;;4974619;28;20404;-84
2021/12/16 21:03:16;;;;;;;;;;;8.70;99.90;;;;;;4967178;28;20359;-85